Aérodrome :
LOGIN :

S'inscrire | Disclaimer

   EN    FR    IT 

 










Légende :    VFR   VFR Marginal   IFR   IFR Intensif   IFR Très Intensif
Visi : 
Plafond : 
>= 8 km
>= 3000ft
5 à 8 km
1000 à 3000 ft
1500m à 5 km
500 à 1000 ft
800 à 1500m
200 à 500 ft
< 800m
< 200 ft
Symboles :   Orages  Brouillard  Fortes neiges  Fortes précipitations  Vent > 20 kt
SIGMETs :   Divers  Orages  Givrage  Turbulence  Onde Orograph.  Cendres Volcan.






- Altitude de l'aérodrome : 55 ft


EGNO - Warton Preston

DERNIER METAR :
  • 241550Z 27027KT 9999 VCSH SCT017 BKN028 08/05 Q0998

METARs EXPIRÉS :
  • 241520Z 28025G38KT 9999 VCSH SCT013 BKN023 08/07 Q0998
  • 241450Z 27028G39KT 9999 SCT013 BKN023 09/07 Q0997
  • 241420Z 26027KT 9999 SCT025 BKN036 10/08 Q0996
  • 241350Z 26023KT 9999 FEW019 BKN036 10/09 Q0996
  • 241320Z 25023KT 9999 FEW019 BKN038 11/09 Q0996

TAF TAF EGNO
Valide du 24 à 15h jusqu'au 24 à 19h UTC


241401Z 2415/2419 26026KT 9999 FEW012 SCT035
TEMPO 2415/2419 27030G43KT
TEMPO 2417/2419 7000 SHRA
ATIS : +44 1772 856 060



MET'MAP, la Météo Aéronautique d'un coup d'oeil ! - Copyright ORBIFLY Décembre 2007 - Disclaimer

ORBIFLY MET'MAP TEAM :

Programmation & Développement : Alexandra Zaïnal
Sur une idée originale de : Baudouin d'Aumeries
Assistance à la programmation : Marc-Olivier Méhu
Soutien technique & logistique : Manuel Goepfert

Contact : metmap@orbifly.com




SOURCES & CREDITS :

   NOAA